Kyoto, Japan

11:23 PM JST on April 27, 2015 (GMT +0900)
Kyoto | | Change Station
CLOSE
Current Station
Personal Weather Station
Location: Kyoto, KYOTO
Elevation: 115 ft
Nearby Weather Stations

Elev 115 ft 34.93 °N, 135.76 °E | Updated 3 minutes ago

Clear
Clear
67.2 °F
Feels Like 67.2 °F
N
0.4
Wind Variable Wind from SW

Today
High -- | Low -- °F
--% Chance of Precip.
Yesterday
High -- | Low -- °F
Precip. -- in
5:11 AM 6:38 PM
Waxing Gibbous, 65% visible
Pressure 30.06 in
Visibility -9999.0 miles
Clouds
Dew Point 59 °F
Humidity 75%
Rainfall in
Snow Depth Not available.
UV 0.0 out of 12
Pollen Not available.
Air Quality Not available.
Flu Activity Not available.
METAR RJBE 271200Z 26007KT CAVOK 17/15 Q1018

More Conditions Fewer Conditions

Pressure 30.06 in
Visibility -9999.0 miles
Clouds
Dew Point 59 °F
Humidity 75%
Rainfall in
Snow Depth Not available.
UV 0.0 out of 12
Pollen Not available.
Air Quality Not available.
Flu Activity Not available.
METAR RJBE 271200Z 26007KT CAVOK 17/15 Q1018

More Conditions Fewer Conditions

10-Day Weather Forecast

Almanac

Astronomy

Apr. 27, 2015 Rise Set
Actual Time
Civil Twilight
Nautical Twilight
Astronomical Twilight
Moon
Length of Visible Light
Length of Day
Tomorrow will be .
, % of the Moon is Illuminated

Today's Extremes

Country Highs Country Lows

Community

WunderPhotos

Upload Photos

1,817,319 photos uploaded!

WunderBlogs® & News

Nearby

Air Quality

  Air Quality AQ Index Pollutant
Not available.

Snow Depth

Station Depth Elevation

Earthquake Activity

City Distance Mag. Time & Date
Minimum magnitude displayed is 2.5.

Coastal Water Temperatures

Place Temperature

Stations

Nearby Weather Stations

Station Location Temp. Windchill Dew Point Humidity Wind Precip. Elev Updated Type